sensor_id;sensor_type;location;lat;lon;timestamp;pressure;altitude;pressure_sealevel;temperature;humidity
12360;BME280;6244;51.460;7.090;2023-03-09T00:04:41;98063.97;;;1.55;85.52
12360;BME280;6244;51.460;7.090;2023-03-09T00:09:38;98083.84;;;1.68;85.62
12360;BME280;6244;51.460;7.090;2023-03-09T00:14:34;98068.78;;;1.61;85.76
12360;BME280;6244;51.460;7.090;2023-03-09T00:19:31;98073.94;;;1.61;85.47
12360;BME280;6244;51.460;7.090;2023-03-09T00:24:29;98092.94;;;1.60;85.85
12360;BME280;6244;51.460;7.090;2023-03-09T00:29:28;98101.63;;;1.74;85.76
12360;BME280;6244;51.460;7.090;2023-03-09T00:34:25;98090.44;;;1.74;85.61
12360;BME280;6244;51.460;7.090;2023-03-09T00:39:21;98089.69;;;1.72;85.68
12360;BME280;6244;51.460;7.090;2023-03-09T00:44:19;98099.63;;;1.64;85.49
12360;BME280;6244;51.460;7.090;2023-03-09T00:49:16;98095.38;;;1.63;85.61
12360;BME280;6244;51.460;7.090;2023-03-09T00:54:13;98106.69;;;1.60;85.60
12360;BME280;6244;51.460;7.090;2023-03-09T00:59:10;98114.22;;;1.65;85.74
12360;BME280;6244;51.460;7.090;2023-03-09T01:04:08;98103.63;;;1.69;85.60
12360;BME280;6244;51.460;7.090;2023-03-09T01:09:05;98099.47;;;1.67;85.37
12360;BME280;6244;51.460;7.090;2023-03-09T01:14:01;98097.13;;;1.62;85.61
12360;BME280;6244;51.460;7.090;2023-03-09T01:18:58;98107.63;;;1.59;85.41
12360;BME280;6244;51.460;7.090;2023-03-09T01:23:56;98107.63;;;1.59;85.98
12360;BME280;6244;51.460;7.090;2023-03-09T01:28:52;98109.38;;;1.59;86.14
12360;BME280;6244;51.460;7.090;2023-03-09T01:33:49;98103.28;;;1.60;85.92
12360;BME280;6244;51.460;7.090;2023-03-09T01:38:47;98126.63;;;1.58;86.08
12360;BME280;6244;51.460;7.090;2023-03-09T01:43:46;98147.75;;;1.66;86.27
12360;BME280;6244;51.460;7.090;2023-03-09T01:48:43;98160.66;;;1.66;86.03
12360;BME280;6244;51.460;7.090;2023-03-09T01:53:40;98154.00;;;1.62;86.03
12360;BME280;6244;51.460;7.090;2023-03-09T01:58:37;98157.56;;;1.60;86.11
12360;BME280;6244;51.460;7.090;2023-03-09T02:03:37;98169.00;;;1.56;86.03
12360;BME280;6244;51.460;7.090;2023-03-09T02:08:35;98175.66;;;1.60;86.10
12360;BME280;6244;51.460;7.090;2023-03-09T02:13:35;98184.06;;;1.47;86.33
12360;BME280;6244;51.460;7.090;2023-03-09T02:18:34;98188.56;;;1.60;86.09
12360;BME280;6244;51.460;7.090;2023-03-09T02:23:36;98208.50;;;1.58;86.13
12360;BME280;6244;51.460;7.090;2023-03-09T02:28:36;98224.00;;;1.58;86.46
12360;BME280;6244;51.460;7.090;2023-03-09T02:33:32;98230.44;;;1.66;86.14
12360;BME280;6244;51.460;7.090;2023-03-09T02:38:29;98228.03;;;1.63;86.03
12360;BME280;6244;51.460;7.090;2023-03-09T02:43:32;98228.97;;;1.62;86.25
12360;BME280;6244;51.460;7.090;2023-03-09T02:48:32;98229.28;;;1.56;85.93
12360;BME280;6244;51.460;7.090;2023-03-09T02:53:28;98248.53;;;1.66;86.12
12360;BME280;6244;51.460;7.090;2023-03-09T02:58:25;98253.53;;;1.69;86.17
12360;BME280;6244;51.460;7.090;2023-03-09T03:03:21;98264.72;;;1.70;86.16
12360;BME280;6244;51.460;7.090;2023-03-09T03:08:19;98266.25;;;1.74;86.05
12360;BME280;6244;51.460;7.090;2023-03-09T03:13:16;98261.47;;;1.82;85.97
12360;BME280;6244;51.460;7.090;2023-03-09T03:18:12;98266.06;;;1.77;85.93
12360;BME280;6244;51.460;7.090;2023-03-09T03:23:09;98266.91;;;1.77;85.87
12360;BME280;6244;51.460;7.090;2023-03-09T03:28:07;98273.66;;;1.80;86.05
12360;BME280;6244;51.460;7.090;2023-03-09T03:33:03;98286.50;;;1.82;85.83
12360;BME280;6244;51.460;7.090;2023-03-09T03:38:00;98290.75;;;1.83;85.79
12360;BME280;6244;51.460;7.090;2023-03-09T03:42:56;98320.19;;;1.80;85.84
12360;BME280;6244;51.460;7.090;2023-03-09T03:47:54;98328.88;;;1.79;85.81
12360;BME280;6244;51.460;7.090;2023-03-09T03:52:51;98335.03;;;1.76;85.80
12360;BME280;6244;51.460;7.090;2023-03-09T03:57:47;98337.19;;;1.68;85.87
12360;BME280;6244;51.460;7.090;2023-03-09T04:02:44;98340.94;;;1.63;86.20
12360;BME280;6244;51.460;7.090;2023-03-09T04:07:42;98348.06;;;1.75;86.14
12360;BME280;6244;51.460;7.090;2023-03-09T04:12:38;98344.78;;;1.71;86.06
12360;BME280;6244;51.460;7.090;2023-03-09T04:17:35;98349.09;;;1.71;85.95
12360;BME280;6244;51.460;7.090;2023-03-09T04:22:31;98376.41;;;1.76;86.16
12360;BME280;6244;51.460;7.090;2023-03-09T04:27:29;98387.81;;;1.72;85.93
12360;BME280;6244;51.460;7.090;2023-03-09T04:32:26;98395.25;;;1.79;86.29
12360;BME280;6244;51.460;7.090;2023-03-09T04:37:22;98403.94;;;1.77;86.01
12360;BME280;6244;51.460;7.090;2023-03-09T04:42:19;98398.94;;;1.74;86.04
12360;BME280;6244;51.460;7.090;2023-03-09T04:47:17;98393.31;;;1.66;86.14
12360;BME280;6244;51.460;7.090;2023-03-09T04:52:13;98398.47;;;1.66;86.04
12360;BME280;6244;51.460;7.090;2023-03-09T04:57:10;98412.22;;;1.67;86.13
12360;BME280;6244;51.460;7.090;2023-03-09T05:02:06;98411.91;;;1.73;86.40
12360;BME280;6244;51.460;7.090;2023-03-09T05:07:04;98433.22;;;1.78;86.23
12360;BME280;6244;51.460;7.090;2023-03-09T05:12:01;98433.38;;;1.75;86.15
12360;BME280;6244;51.460;7.090;2023-03-09T05:16:57;98433.66;;;1.69;86.14
12360;BME280;6244;51.460;7.090;2023-03-09T05:21:54;98438.16;;;1.65;86.17
12360;BME280;6244;51.460;7.090;2023-03-09T05:26:52;98454.59;;;1.64;86.39
12360;BME280;6244;51.460;7.090;2023-03-09T05:31:48;98470.03;;;1.66;86.43
12360;BME280;6244;51.460;7.090;2023-03-09T05:36:45;98469.94;;;1.67;86.45
12360;BME280;6244;51.460;7.090;2023-03-09T05:41:41;98474.28;;;1.67;86.57
12360;BME280;6244;51.460;7.090;2023-03-09T05:46:39;98490.84;;;1.63;86.51
12360;BME280;6244;51.460;7.090;2023-03-09T05:51:37;98509.72;;;1.65;86.61
12360;BME280;6244;51.460;7.090;2023-03-09T05:56:34;98509.47;;;1.69;86.46
12360;BME280;6244;51.460;7.090;2023-03-09T06:01:30;98518.97;;;1.69;86.44
12360;BME280;6244;51.460;7.090;2023-03-09T06:06:28;98526.72;;;1.69;86.56
12360;BME280;6244;51.460;7.090;2023-03-09T06:11:25;98537.97;;;1.68;86.43
12360;BME280;6244;51.460;7.090;2023-03-09T06:16:22;98534.66;;;1.66;86.56
12360;BME280;6244;51.460;7.090;2023-03-09T06:21:18;98547.34;;;1.70;86.74
12360;BME280;6244;51.460;7.090;2023-03-09T06:26:16;98535.78;;;1.77;86.55
12360;BME280;6244;51.460;7.090;2023-03-09T06:31:13;98550.22;;;1.82;86.84
12360;BME280;6244;51.460;7.090;2023-03-09T06:36:12;98560.28;;;1.88;86.44
12360;BME280;6244;51.460;7.090;2023-03-09T06:41:09;98543.53;;;1.95;86.36
12360;BME280;6244;51.460;7.090;2023-03-09T06:46:09;98540.13;;;1.94;86.52
12360;BME280;6244;51.460;7.090;2023-03-09T06:51:05;98532.06;;;2.00;86.49
12360;BME280;6244;51.460;7.090;2023-03-09T06:56:02;98536.25;;;2.03;86.46
12360;BME280;6244;51.460;7.090;2023-03-09T07:01:05;98534.03;;;2.13;86.35
12360;BME280;6244;51.460;7.090;2023-03-09T07:06:03;98556.84;;;2.04;86.78
12360;BME280;6244;51.460;7.090;2023-03-09T07:11:00;98564.00;;;1.82;87.04
12360;BME280;6244;51.460;7.090;2023-03-09T07:15:56;98565.59;;;2.19;87.00
12360;BME280;6244;51.460;7.090;2023-03-09T07:20:53;98596.50;;;2.40;86.77
12360;BME280;6244;51.460;7.090;2023-03-09T07:25:51;98598.16;;;2.41;86.59
12360;BME280;6244;51.460;7.090;2023-03-09T07:30:47;98613.53;;;2.44;86.45
12360;BME280;6244;51.460;7.090;2023-03-09T07:35:44;98624.13;;;2.39;86.20
12360;BME280;6244;51.460;7.090;2023-03-09T07:40:40;98639.56;;;2.41;86.20
12360;BME280;6244;51.460;7.090;2023-03-09T07:45:39;98646.97;;;2.48;85.96
12360;BME280;6244;51.460;7.090;2023-03-09T07:50:36;98656.63;;;2.45;86.13
12360;BME280;6244;51.460;7.090;2023-03-09T07:55:32;98656.31;;;2.51;86.07
12360;BME280;6244;51.460;7.090;2023-03-09T08:00:29;98668.03;;;2.58;86.17
12360;BME280;6244;51.460;7.090;2023-03-09T08:05:28;98675.41;;;2.65;85.99
12360;BME280;6244;51.460;7.090;2023-03-09T08:10:25;98695.06;;;2.70;85.53
12360;BME280;6244;51.460;7.090;2023-03-09T08:15:22;98696.59;;;2.56;85.61
12360;BME280;6244;51.460;7.090;2023-03-09T08:20:19;98705.09;;;2.58;85.46
12360;BME280;6244;51.460;7.090;2023-03-09T08:25:17;98708.53;;;2.59;85.80
12360;BME280;6244;51.460;7.090;2023-03-09T08:30:15;98718.44;;;2.68;85.86
12360;BME280;6244;51.460;7.090;2023-03-09T08:35:14;98733.44;;;2.79;85.75
12360;BME280;6244;51.460;7.090;2023-03-09T08:40:12;98742.38;;;2.73;85.40
12360;BME280;6244;51.460;7.090;2023-03-09T08:45:10;98736.13;;;2.77;85.10
12360;BME280;6244;51.460;7.090;2023-03-09T08:50:09;98755.91;;;2.78;85.46
12360;BME280;6244;51.460;7.090;2023-03-09T08:55:07;98763.78;;;2.77;85.26
12360;BME280;6244;51.460;7.090;2023-03-09T09:00:05;98776.72;;;2.77;85.57
12360;BME280;6244;51.460;7.090;2023-03-09T09:05:06;98773.28;;;2.76;86.09
12360;BME280;6244;51.460;7.090;2023-03-09T09:10:03;98783.56;;;2.78;86.12
12360;BME280;6244;51.460;7.090;2023-03-09T09:14:59;98793.09;;;2.94;85.81
12360;BME280;6244;51.460;7.090;2023-03-09T09:19:56;98796.16;;;2.85;86.23
12360;BME280;6244;51.460;7.090;2023-03-09T09:24:54;98794.75;;;2.95;85.92
12360;BME280;6244;51.460;7.090;2023-03-09T09:29:50;98813.56;;;2.82;85.68
12360;BME280;6244;51.460;7.090;2023-03-09T09:34:48;98803.59;;;2.91;86.46
12360;BME280;6244;51.460;7.090;2023-03-09T09:39:44;98818.00;;;2.97;85.79
12360;BME280;6244;51.460;7.090;2023-03-09T09:44:43;98822.19;;;3.17;86.21
12360;BME280;6244;51.460;7.090;2023-03-09T09:49:43;98818.06;;;3.30;85.42
12360;BME280;6244;51.460;7.090;2023-03-09T09:54:44;98823.41;;;2.75;85.76
12360;BME280;6244;51.460;7.090;2023-03-09T09:59:52;98833.84;;;2.38;86.72
12360;BME280;6244;51.460;7.090;2023-03-09T10:04:55;98837.22;;;2.93;87.32
12360;BME280;6244;51.460;7.090;2023-03-09T10:09:54;98840.50;;;3.14;86.51
12360;BME280;6244;51.460;7.090;2023-03-09T10:14:56;98841.91;;;2.85;86.57
12360;BME280;6244;51.460;7.090;2023-03-09T10:19:57;98858.84;;;2.56;86.89
12360;BME280;6244;51.460;7.090;2023-03-09T10:24:57;98862.91;;;2.61;87.49
12360;BME280;6244;51.460;7.090;2023-03-09T10:30:02;98851.25;;;2.70;87.15
12360;BME280;6244;51.460;7.090;2023-03-09T10:35:06;98857.44;;;2.68;88.04
12360;BME280;6244;51.460;7.090;2023-03-09T10:40:17;98862.88;;;2.80;87.79
12360;BME280;6244;51.460;7.090;2023-03-09T10:45:26;98868.88;;;2.81;87.80
12360;BME280;6244;51.460;7.090;2023-03-09T10:50:25;98869.88;;;2.95;87.91
12360;BME280;6244;51.460;7.090;2023-03-09T10:55:34;98889.31;;;2.87;87.71
12360;BME280;6244;51.460;7.090;2023-03-09T11:00:33;98902.38;;;2.67;88.88
12360;BME280;6244;51.460;7.090;2023-03-09T11:05:30;98916.19;;;2.84;87.76
12360;BME280;6244;51.460;7.090;2023-03-09T11:10:28;98912.31;;;2.76;88.75
12360;BME280;6244;51.460;7.090;2023-03-09T11:15:27;98906.63;;;2.86;88.55
12360;BME280;6244;51.460;7.090;2023-03-09T11:20:31;98912.00;;;3.18;87.28
12360;BME280;6244;51.460;7.090;2023-03-09T11:25:30;98919.09;;;3.14;87.32
12360;BME280;6244;51.460;7.090;2023-03-09T11:30:30;98920.50;;;3.03;88.04
12360;BME280;6244;51.460;7.090;2023-03-09T11:35:26;98911.31;;;2.78;88.31
12360;BME280;6244;51.460;7.090;2023-03-09T11:40:27;98902.63;;;3.15;88.97
12360;BME280;6244;51.460;7.090;2023-03-09T11:45:27;98886.53;;;3.61;88.49
12360;BME280;6244;51.460;7.090;2023-03-09T11:50:27;98897.41;;;3.67;86.91
12360;BME280;6244;51.460;7.090;2023-03-09T11:55:30;98911.59;;;3.77;87.10
12360;BME280;6244;51.460;7.090;2023-03-09T12:00:31;98904.59;;;3.45;87.05
12360;BME280;6244;51.460;7.090;2023-03-09T12:05:33;98923.69;;;3.61;87.15
12360;BME280;6244;51.460;7.090;2023-03-09T12:10:34;98915.06;;;3.26;87.42
12360;BME280;6244;51.460;7.090;2023-03-09T12:15:35;98908.28;;;3.23;87.79
12360;BME280;6244;51.460;7.090;2023-03-09T12:20:36;98899.81;;;3.37;87.39
12360;BME280;6244;51.460;7.090;2023-03-09T12:25:35;98907.03;;;3.31;87.66
12360;BME280;6244;51.460;7.090;2023-03-09T12:30:33;98897.66;;;3.28;88.02
12360;BME280;6244;51.460;7.090;2023-03-09T12:41:00;98881.19;;;3.97;87.90
12360;BME280;6244;51.460;7.090;2023-03-09T12:52:05;98864.72;;;3.98;86.50
12360;BME280;6244;51.460;7.090;2023-03-09T12:57:16;98852.84;;;4.09;85.72
12360;BME280;6244;51.460;7.090;2023-03-09T13:02:32;98848.59;;;4.24;85.70
12360;BME280;6244;51.460;7.090;2023-03-09T13:07:31;98848.22;;;4.30;85.47
12360;BME280;6244;51.460;7.090;2023-03-09T13:12:30;98847.66;;;4.09;85.92
12360;BME280;6244;51.460;7.090;2023-03-09T13:17:36;98851.97;;;3.93;87.47
12360;BME280;6244;51.460;7.090;2023-03-09T13:22:37;98856.47;;;3.74;87.88
12360;BME280;6244;51.460;7.090;2023-03-09T13:27:36;98847.03;;;3.89;87.77
12360;BME280;6244;51.460;7.090;2023-03-09T13:32:35;98840.75;;;4.08;87.77
12360;BME280;6244;51.460;7.090;2023-03-09T13:37:38;98855.09;;;4.16;87.56
12360;BME280;6244;51.460;7.090;2023-03-09T13:42:38;98822.84;;;4.20;87.58
12360;BME280;6244;51.460;7.090;2023-03-09T13:47:35;98856.03;;;4.15;87.99
12360;BME280;6244;51.460;7.090;2023-03-09T13:52:32;98831.06;;;4.12;87.91
12360;BME280;6244;51.460;7.090;2023-03-09T13:57:30;98815.06;;;4.20;88.17
12360;BME280;6244;51.460;7.090;2023-03-09T14:02:30;98798.56;;;4.05;88.02
12360;BME280;6244;51.460;7.090;2023-03-09T14:07:31;98798.22;;;3.95;88.18
12360;BME280;6244;51.460;7.090;2023-03-09T14:12:30;98795.50;;;3.98;88.19
12360;BME280;6244;51.460;7.090;2023-03-09T14:17:28;98810.28;;;3.96;88.54
12360;BME280;6244;51.460;7.090;2023-03-09T14:22:27;98796.31;;;3.99;88.66
12360;BME280;6244;51.460;7.090;2023-03-09T14:27:28;98799.22;;;4.08;88.68
12360;BME280;6244;51.460;7.090;2023-03-09T14:32:28;98805.88;;;4.14;89.11
12360;BME280;6244;51.460;7.090;2023-03-09T14:37:27;98795.50;;;4.14;88.61
12360;BME280;6244;51.460;7.090;2023-03-09T14:42:27;98790.97;;;4.02;89.16
12360;BME280;6244;51.460;7.090;2023-03-09T14:47:24;98804.84;;;3.85;89.42
12360;BME280;6244;51.460;7.090;2023-03-09T14:52:23;98784.75;;;4.04;89.54
12360;BME280;6244;51.460;7.090;2023-03-09T14:57:22;98788.00;;;4.08;89.72
12360;BME280;6244;51.460;7.090;2023-03-09T15:02:18;98775.81;;;4.10;89.79
12360;BME280;6244;51.460;7.090;2023-03-09T15:07:17;98758.97;;;4.17;89.93
12360;BME280;6244;51.460;7.090;2023-03-09T15:12:18;98748.84;;;4.28;90.10
12360;BME280;6244;51.460;7.090;2023-03-09T15:17:17;98732.88;;;4.50;90.23
12360;BME280;6244;51.460;7.090;2023-03-09T15:22:15;98723.66;;;4.60;90.54
12360;BME280;6244;51.460;7.090;2023-03-09T15:27:14;98714.47;;;4.69;90.41
12360;BME280;6244;51.460;7.090;2023-03-09T15:32:11;98700.47;;;4.71;90.95
12360;BME280;6244;51.460;7.090;2023-03-09T15:37:07;98688.44;;;4.85;90.63
12360;BME280;6244;51.460;7.090;2023-03-09T15:42:04;98668.94;;;4.92;90.79
12360;BME280;6244;51.460;7.090;2023-03-09T15:47:02;98646.78;;;5.00;90.54
12360;BME280;6244;51.460;7.090;2023-03-09T15:51:58;98659.38;;;4.92;90.88
12360;BME280;6244;51.460;7.090;2023-03-09T15:56:55;98654.81;;;4.96;90.55
12360;BME280;6244;51.460;7.090;2023-03-09T16:01:51;98658.47;;;4.93;90.18
12360;BME280;6244;51.460;7.090;2023-03-09T16:06:49;98656.53;;;4.97;90.26
12360;BME280;6244;51.460;7.090;2023-03-09T16:11:46;98643.16;;;4.89;90.31
12360;BME280;6244;51.460;7.090;2023-03-09T16:16:42;98641.47;;;4.88;90.49
12360;BME280;6244;51.460;7.090;2023-03-09T16:21:39;98641.47;;;4.88;89.93
12360;BME280;6244;51.460;7.090;2023-03-09T16:26:36;98638.31;;;4.83;90.39
12360;BME280;6244;51.460;7.090;2023-03-09T16:31:33;98630.16;;;4.75;90.12
12360;BME280;6244;51.460;7.090;2023-03-09T16:36:29;98633.28;;;4.65;90.33
12360;BME280;6244;51.460;7.090;2023-03-09T16:41:27;98643.47;;;4.54;90.42
12360;BME280;6244;51.460;7.090;2023-03-09T16:46:26;98642.63;;;4.54;90.35
12360;BME280;6244;51.460;7.090;2023-03-09T16:51:23;98654.88;;;4.52;90.37
12360;BME280;6244;51.460;7.090;2023-03-09T16:56:19;98670.06;;;4.43;91.21
12360;BME280;6244;51.460;7.090;2023-03-09T17:01:18;98662.44;;;4.40;91.01
12360;BME280;6244;51.460;7.090;2023-03-09T17:06:18;98631.56;;;4.36;90.75
12360;BME280;6244;51.460;7.090;2023-03-09T17:11:15;98652.97;;;4.25;90.97
12360;BME280;6244;51.460;7.090;2023-03-09T17:16:12;98647.03;;;4.23;91.25
12360;BME280;6244;51.460;7.090;2023-03-09T17:21:09;98643.50;;;4.24;91.02
12360;BME280;6244;51.460;7.090;2023-03-09T17:26:08;98631.97;;;4.14;91.31
12360;BME280;6244;51.460;7.090;2023-03-09T17:31:09;98626.97;;;4.11;90.94
12360;BME280;6244;51.460;7.090;2023-03-09T17:36:06;98618.34;;;4.10;91.02
12360;BME280;6244;51.460;7.090;2023-03-09T17:41:07;98616.06;;;4.04;91.24
12360;BME280;6244;51.460;7.090;2023-03-09T17:46:05;98600.91;;;4.12;91.54
12360;BME280;6244;51.460;7.090;2023-03-09T17:51:05;98593.91;;;4.29;91.65
12360;BME280;6244;51.460;7.090;2023-03-09T17:56:04;98583.53;;;4.43;91.03
12360;BME280;6244;51.460;7.090;2023-03-09T18:01:08;98588.38;;;4.63;91.19
12360;BME280;6244;51.460;7.090;2023-03-09T18:06:06;98573.94;;;4.74;91.07
12360;BME280;6244;51.460;7.090;2023-03-09T18:11:02;98572.41;;;4.69;90.88
12360;BME280;6244;51.460;7.090;2023-03-09T18:15:59;98555.44;;;4.64;91.05
12360;BME280;6244;51.460;7.090;2023-03-09T18:20:59;98556.47;;;4.61;91.24
12360;BME280;6244;51.460;7.090;2023-03-09T18:25:55;98548.41;;;4.66;91.28
12360;BME280;6244;51.460;7.090;2023-03-09T18:30:52;98541.09;;;4.72;91.11
12360;BME280;6244;51.460;7.090;2023-03-09T18:35:48;98536.72;;;4.73;91.31
12360;BME280;6244;51.460;7.090;2023-03-09T18:40:46;98516.38;;;4.80;91.19
12360;BME280;6244;51.460;7.090;2023-03-09T18:45:43;98506.34;;;4.88;91.09
12360;BME280;6244;51.460;7.090;2023-03-09T18:50:39;98502.44;;;4.95;91.15
12360;BME280;6244;51.460;7.090;2023-03-09T18:55:36;98490.72;;;5.02;91.06
12360;BME280;6244;51.460;7.090;2023-03-09T19:00:34;98476.81;;;5.03;91.39
12360;BME280;6244;51.460;7.090;2023-03-09T19:05:32;98475.19;;;5.15;91.43
12360;BME280;6244;51.460;7.090;2023-03-09T19:10:29;98463.03;;;5.15;91.39
12360;BME280;6244;51.460;7.090;2023-03-09T19:15:25;98449.25;;;5.27;91.76
12360;BME280;6244;51.460;7.090;2023-03-09T19:20:24;98432.50;;;5.31;91.33
12360;BME280;6244;51.460;7.090;2023-03-09T19:25:21;98417.66;;;5.34;91.55
12360;BME280;6244;51.460;7.090;2023-03-09T19:30:18;98413.56;;;5.29;91.69
12360;BME280;6244;51.460;7.090;2023-03-09T19:35:14;98411.59;;;5.33;91.69
12360;BME280;6244;51.460;7.090;2023-03-09T19:40:14;98409.09;;;5.31;91.51
12360;BME280;6244;51.460;7.090;2023-03-09T19:45:10;98397.38;;;5.39;91.80
12360;BME280;6244;51.460;7.090;2023-03-09T19:50:08;98390.63;;;5.49;92.14
12360;BME280;6244;51.460;7.090;2023-03-09T19:55:07;98383.28;;;5.94;92.80
12360;BME280;6244;51.460;7.090;2023-03-09T20:00:06;98375.78;;;6.02;92.70
12360;BME280;6244;51.460;7.090;2023-03-09T20:05:04;98363.81;;;6.48;93.08
12360;BME280;6244;51.460;7.090;2023-03-09T20:10:01;98353.97;;;6.89;93.33
12360;BME280;6244;51.460;7.090;2023-03-09T20:14:58;98337.00;;;7.07;93.47
12360;BME280;6244;51.460;7.090;2023-03-09T20:19:56;98331.19;;;7.15;93.67
12360;BME280;6244;51.460;7.090;2023-03-09T20:24:55;98319.22;;;7.12;93.72
12360;BME280;6244;51.460;7.090;2023-03-09T20:29:52;98308.75;;;7.47;94.00
12360;BME280;6244;51.460;7.090;2023-03-09T20:34:49;98287.38;;;7.42;93.86
12360;BME280;6244;51.460;7.090;2023-03-09T20:39:47;98284.56;;;7.56;93.74
12360;BME280;6244;51.460;7.090;2023-03-09T20:44:44;98270.91;;;7.53;93.61
12360;BME280;6244;51.460;7.090;2023-03-09T20:49:40;98264.50;;;7.79;93.33
12360;BME280;6244;51.460;7.090;2023-03-09T20:54:37;98257.28;;;7.83;93.31
12360;BME280;6244;51.460;7.090;2023-03-09T20:59:35;98249.66;;;7.91;93.19
12360;BME280;6244;51.460;7.090;2023-03-09T21:04:35;98240.31;;;7.77;93.21
12360;BME280;6244;51.460;7.090;2023-03-09T21:09:33;98231.66;;;7.88;93.27
12360;BME280;6244;51.460;7.090;2023-03-09T21:14:29;98211.84;;;7.85;93.72
12360;BME280;6244;51.460;7.090;2023-03-09T21:19:29;98203.97;;;7.97;93.44
12360;BME280;6244;51.460;7.090;2023-03-09T21:24:28;98189.34;;;8.05;93.34
12360;BME280;6244;51.460;7.090;2023-03-09T21:29:24;98194.66;;;8.15;93.25
12360;BME280;6244;51.460;7.090;2023-03-09T21:34:21;98176.75;;;8.10;93.22
12360;BME280;6244;51.460;7.090;2023-03-09T21:39:19;98167.28;;;8.09;93.28
12360;BME280;6244;51.460;7.090;2023-03-09T21:44:15;98162.78;;;8.00;93.84
12360;BME280;6244;51.460;7.090;2023-03-09T21:49:11;98150.78;;;8.09;93.51
12360;BME280;6244;51.460;7.090;2023-03-09T21:54:08;98127.13;;;8.10;93.66
12360;BME280;6244;51.460;7.090;2023-03-09T21:59:06;98121.81;;;8.01;93.83
12360;BME280;6244;51.460;7.090;2023-03-09T22:04:03;98120.69;;;8.14;93.62
12360;BME280;6244;51.460;7.090;2023-03-09T22:09:00;98112.59;;;8.17;93.63
12360;BME280;6244;51.460;7.090;2023-03-09T22:13:58;98108.09;;;8.19;93.70
12360;BME280;6244;51.460;7.090;2023-03-09T22:18:57;98097.75;;;7.97;93.89
12360;BME280;6244;51.460;7.090;2023-03-09T22:23:54;98084.97;;;8.15;94.29
12360;BME280;6244;51.460;7.090;2023-03-09T22:28:52;98074.81;;;8.01;93.69
12360;BME280;6244;51.460;7.090;2023-03-09T22:33:49;98069.75;;;8.20;94.07
12360;BME280;6244;51.460;7.090;2023-03-09T22:38:47;98061.31;;;8.16;93.55
12360;BME280;6244;51.460;7.090;2023-03-09T22:43:45;98040.00;;;8.11;94.00
12360;BME280;6244;51.460;7.090;2023-03-09T22:48:42;98036.72;;;7.98;93.89
12360;BME280;6244;51.460;7.090;2023-03-09T22:53:39;98018.88;;;8.03;93.91
12360;BME280;6244;51.460;7.090;2023-03-09T22:58:37;98002.00;;;7.86;93.96
12360;BME280;6244;51.460;7.090;2023-03-09T23:03:34;97999.66;;;8.04;93.87
12360;BME280;6244;51.460;7.090;2023-03-09T23:08:31;97983.66;;;8.18;93.78
12360;BME280;6244;51.460;7.090;2023-03-09T23:13:27;97953.31;;;8.27;93.27
12360;BME280;6244;51.460;7.090;2023-03-09T23:18:25;97943.22;;;8.13;93.57
12360;BME280;6244;51.460;7.090;2023-03-09T23:23:22;97934.63;;;8.22;93.06
12360;BME280;6244;51.460;7.090;2023-03-09T23:28:18;97928.91;;;8.07;93.31
12360;BME280;6244;51.460;7.090;2023-03-09T23:33:15;97905.75;;;8.23;93.28
12360;BME280;6244;51.460;7.090;2023-03-09T23:38:12;97900.34;;;8.15;93.63
12360;BME280;6244;51.460;7.090;2023-03-09T23:43:09;97889.25;;;8.23;93.85
12360;BME280;6244;51.460;7.090;2023-03-09T23:48:06;97880.66;;;8.11;94.06
12360;BME280;6244;51.460;7.090;2023-03-09T23:53:02;97866.97;;;8.29;94.12
12360;BME280;6244;51.460;7.090;2023-03-09T23:58:00;97852.13;;;8.19;94.12
